Time;durP1;ratioP1;P1;durP2;ratioP2;P2;SDS_P1;SDS_P2;PMS_P1;PMS_P2;Temp;Humidity;BMP_temperature;BMP_pressure;BME280_temperature;BME280_humidity;BME280_pressure;Samples;Min_cycle;Max_cycle;Signal;HPM_P1;HPM_P2
2023/05/18 04:48:08;;;;;;;11.13;8.27;;;5.10;99.90;;;;;;5111096;27;20545;-77
2023/05/18 04:57:23;;;;;;;16.57;8.30;;;5.30;99.90;;;;;;5132211;27;20775;-77
2023/05/18 05:06:59;;;;;;;16.53;8.37;;;5.40;99.90;;;;;;5132107;27;20633;-77
2023/05/18 05:14:31;;;;;;;14.83;9.67;;;5.50;99.90;;;;;;5132555;27;20274;-77
2023/05/18 05:21:00;;;;;;;17.30;8.93;;;5.70;99.90;;;;;;5132106;27;20646;-78
2023/05/18 05:26:16;;;;;;;14.80;9.90;;;5.80;99.90;;;;;;5131973;27;20742;-78
2023/05/18 05:30:55;;;;;;;13.23;9.23;;;6.00;99.90;;;;;;5131769;27;20289;-78
2023/05/18 05:35:52;;;;;;;14.23;9.57;;;6.20;99.90;;;;;;5132925;27;20297;-77
2023/05/18 05:40:45;;;;;;;12.87;9.27;;;6.30;99.90;;;;;;5131735;27;20292;-77
2023/05/18 05:46:38;;;;;;;13.97;8.83;;;6.50;99.90;;;;;;5132505;27;20281;-77
2023/05/18 05:51:34;;;;;;;14.43;9.43;;;6.70;99.90;;;;;;5111112;27;20892;-77
2023/05/18 05:56:31;;;;;;;13.67;8.40;;;6.90;99.90;;;;;;5130711;27;20276;-77
2023/05/18 06:02:14;;;;;;;15.10;8.47;;;7.20;99.90;;;;;;5131916;27;20284;-77
2023/05/18 06:06:52;;;;;;;12.10;7.70;;;7.50;99.90;;;;;;5133612;27;20455;-78
2023/05/18 06:11:55;;;;;;;10.13;7.00;;;7.80;99.90;;;;;;5111534;27;20602;-77
2023/05/18 06:15:58;;;;;;;10.20;6.87;;;8.10;99.90;;;;;;5131639;27;20274;-77
2023/05/18 06:20:42;;;;;;;10.73;5.87;;;8.30;99.90;;;;;;5132833;27;20280;-78
2023/05/18 06:25:18;;;;;;;8.57;5.63;;;8.60;99.90;;;;;;5131904;27;20277;-77
2023/05/18 06:29:12;;;;;;;9.47;5.93;;;8.80;99.90;;;;;;5132120;27;20275;-77
2023/05/18 06:32:31;;;;;;;7.93;4.40;;;8.90;99.90;;;;;;5133199;27;20272;-78
2023/05/18 06:36:06;;;;;;;11.63;5.20;;;9.10;99.90;;;;;;5132393;27;20643;-78
2023/05/18 06:40:03;;;;;;;5.47;3.40;;;9.30;99.90;;;;;;5132677;27;20279;-77
2023/05/18 06:44:00;;;;;;;9.20;4.30;;;9.40;99.90;;;;;;5134540;27;20280;-78
2023/05/18 06:47:54;;;;;;;7.63;3.90;;;9.50;99.90;;;;;;5132762;27;20297;-77
2023/05/18 06:51:55;;;;;;;7.63;4.03;;;9.70;99.90;;;;;;5134044;27;20272;-78
2023/05/18 06:55:55;;;;;;;6.90;3.40;;;10.00;99.90;;;;;;5132817;27;20776;-78
2023/05/18 06:59:57;;;;;;;8.00;4.23;;;10.20;99.90;;;;;;5132208;27;20298;-77
2023/05/18 07:03:58;;;;;;;8.70;3.37;;;10.30;99.90;;;;;;5009291;27;21066;-77
2023/05/18 07:07:58;;;;;;;6.87;3.73;;;10.30;99.90;;;;;;5132292;27;20275;-79
2023/05/18 07:11:59;;;;;;;5.03;2.93;;;10.50;99.90;;;;;;5131938;27;20263;-77
2023/05/18 07:15:58;;;;;;;4.83;2.93;;;10.60;99.90;;;;;;5133146;27;20279;-78
2023/05/18 07:19:58;;;;;;;2.80;2.20;;;10.70;99.90;;;;;;5167572;27;20335;-77
2023/05/18 07:23:57;;;;;;;6.77;2.60;;;10.90;99.90;;;;;;5132154;27;20281;-77
2023/05/18 07:27:57;;;;;;;6.20;2.80;;;11.10;99.90;;;;;;5132703;27;20756;-79
2023/05/18 07:33:02;;;;;;;6.20;2.97;;;11.20;99.90;;;;;;5133658;27;20279;-79
2023/05/18 07:36:59;;;;;;;5.57;3.07;;;11.30;99.90;;;;;;5132128;27;20267;-77
2023/05/18 07:41:00;;;;;;;5.80;2.67;;;11.40;99.90;;;;;;5131990;27;20296;-78
2023/05/18 07:45:00;;;;;;;5.70;3.07;;;11.60;99.90;;;;;;5132815;27;20766;-77
2023/05/18 07:50:03;;;;;;;5.53;2.60;;;11.60;99.90;;;;;;5132509;27;20283;-77
2023/05/18 07:52:29;;;;;;;5.80;2.83;;;11.80;99.90;;;;;;5132114;27;20479;-77
2023/05/18 07:55:57;;;;;;;8.03;2.50;;;11.90;99.90;;;;;;5132371;27;20271;-77
2023/05/18 07:58:23;;;;;;;7.93;2.73;;;12.00;99.90;;;;;;5113488;28;20648;-77
2023/05/18 08:00:48;;;;;;;5.93;2.47;;;12.10;99.90;;;;;;5131734;28;20190;-77
2023/05/18 08:03:14;;;;;;;4.63;2.70;;;12.30;99.90;;;;;;5131282;28;20582;-79
2023/05/18 08:05:40;;;;;;;7.00;2.70;;;12.40;99.90;;;;;;5131832;28;20179;-77
2023/05/18 08:08:07;;;;;;;6.30;2.57;;;12.30;99.90;;;;;;5131126;28;20190;-77
2023/05/18 08:10:32;;;;;;;4.83;2.53;;;12.30;99.90;;;;;;5130589;28;20195;-77
2023/05/18 08:12:58;;;;;;;9.33;2.80;;;12.70;99.90;;;;;;5130853;28;20265;-79
2023/05/18 08:15:23;;;;;;;5.40;2.67;;;13.00;99.90;;;;;;5133816;27;20203;-80
2023/05/18 08:17:51;;;;;;;4.80;2.57;;;13.60;99.90;;;;;;5132659;28;20231;-78
2023/05/18 08:20:16;;;;;;;6.70;2.30;;;14.00;99.90;;;;;;5130795;28;20195;-78
2023/05/18 08:22:42;;;;;;;6.03;2.40;;;14.60;99.90;;;;;;5130200;28;20371;-77
2023/05/18 08:25:09;;;;;;;5.50;2.63;;;15.00;99.90;;;;;;5131927;27;20182;-78
2023/05/18 08:27:34;;;;;;;5.80;2.67;;;15.40;99.90;;;;;;5131519;27;20712;-78
2023/05/18 08:30:00;;;;;;;3.87;2.10;;;15.70;99.90;;;;;;5131427;28;20240;-78
2023/05/18 08:32:26;;;;;;;6.60;3.03;;;15.40;99.90;;;;;;5131747;27;20202;-78
2023/05/18 08:34:53;;;;;;;5.20;2.47;;;14.80;99.90;;;;;;5130259;28;20199;-78
2023/05/18 08:37:18;;;;;;;5.17;2.60;;;15.10;99.90;;;;;;5130320;28;20178;-77
2023/05/18 08:39:45;;;;;;;4.67;2.53;;;14.50;99.90;;;;;;5129780;28;20566;-78
2023/05/18 08:42:32;;;;;;;5.93;2.67;;;14.30;99.90;;;;;;5132288;27;20163;-78
2023/05/18 08:45:13;;;;;;;11.07;2.90;;;14.10;99.90;;;;;;5130108;28;20195;-78
2023/05/18 08:47:39;;;;;;;5.60;2.53;;;14.10;99.90;;;;;;5131587;27;20251;-78
2023/05/18 08:50:06;;;;;;;5.43;2.80;;;13.70;99.90;;;;;;5130085;28;20221;-77
2023/05/18 08:52:40;;;;;;;7.07;2.50;;;14.10;99.90;;;;;;5130377;28;20175;-78
2023/05/18 08:55:07;;;;;;;8.37;2.90;;;13.70;99.90;;;;;;5131126;27;20203;-77
2023/05/18 08:57:35;;;;;;;5.13;2.97;;;14.50;99.90;;;;;;5129932;28;20175;-77
2023/05/18 09:00:03;;;;;;;7.97;2.80;;;15.60;99.90;;;;;;5133213;27;20187;-77
2023/05/18 09:02:30;;;;;;;7.70;2.73;;;16.00;99.90;;;;;;5131279;27;20191;-78
2023/05/18 09:04:57;;;;;;;6.40;2.40;;;16.60;99.90;;;;;;5129532;28;20267;-77
2023/05/18 09:07:23;;;;;;;6.97;2.83;;;16.70;99.90;;;;;;5115480;28;20177;-78
2023/05/18 09:09:49;;;;;;;7.70;2.80;;;17.10;99.90;;;;;;5117205;28;20196;-78
2023/05/18 09:12:17;;;;;;;6.27;3.30;;;16.70;99.90;;;;;;5117021;28;20187;-77
2023/05/18 09:14:45;;;;;;;7.00;2.70;;;15.50;99.90;;;;;;5115584;28;20573;-78
2023/05/18 09:17:11;;;;;;;5.43;2.50;;;14.50;99.90;;;;;;5117425;28;20167;-77
2023/05/18 09:19:36;;;;;;;4.77;3.03;;;13.60;99.90;;;;;;5116483;28;20191;-78
2023/05/18 09:22:03;;;;;;;3.70;2.23;;;13.20;99.90;;;;;;5116652;28;20205;-77
2023/05/18 09:24:28;;;;;;;5.07;2.70;;;13.40;99.90;;;;;;5116759;28;20687;-78
2023/05/18 09:26:54;;;;;;;6.00;2.50;;;13.30;99.90;;;;;;5116377;28;20218;-77
2023/05/18 09:29:22;;;;;;;5.10;2.67;;;12.90;99.90;;;;;;5117160;28;20171;-78
2023/05/18 09:31:49;;;;;;;5.37;2.77;;;12.90;99.90;;;;;;5117341;28;20254;-78
2023/05/18 09:34:15;;;;;;;5.77;2.70;;;13.00;99.90;;;;;;5116930;28;20203;-78
2023/05/18 09:36:45;;;;;;;4.37;2.37;;;13.30;99.90;;;;;;5115872;28;20233;-78
2023/05/18 09:39:11;;;;;;;5.47;2.43;;;13.40;99.90;;;;;;5117508;28;20169;-77
2023/05/18 09:41:40;;;;;;;7.10;2.70;;;14.00;99.90;;;;;;5116526;28;20282;-77
2023/05/18 09:44:08;;;;;;;6.20;2.90;;;14.30;99.90;;;;;;5116447;28;20200;-77
2023/05/18 09:46:40;;;;;;;8.23;2.57;;;13.90;99.90;;;;;;5115557;28;20582;-78
2023/05/18 09:49:07;;;;;;;4.20;2.27;;;13.80;99.90;;;;;;5114718;28;20274;-77
2023/05/18 09:51:36;;;;;;;3.50;2.30;;;13.60;99.90;;;;;;5115032;28;20243;-78
2023/05/18 09:54:05;;;;;;;6.97;2.10;;;13.70;99.90;;;;;;5114367;28;20220;-78
2023/05/18 09:56:35;;;;;;;4.63;2.00;;;13.80;99.90;;;;;;5116135;28;20578;-77
2023/05/18 09:59:09;;;;;;;4.37;2.30;;;13.50;99.90;;;;;;5114688;28;20183;-77
2023/05/18 10:01:34;;;;;;;6.23;2.27;;;14.40;99.90;;;;;;5114618;28;20744;-77
2023/05/18 10:04:05;;;;;;;10.73;2.77;;;15.40;99.90;;;;;;5116209;28;20260;-79
2023/05/18 10:06:31;;;;;;;5.33;2.23;;;15.80;99.90;;;;;;5116041;28;20187;-79
2023/05/18 10:09:00;;;;;;;3.80;2.40;;;16.00;99.90;;;;;;5114422;28;20208;-77
2023/05/18 10:11:30;;;;;;;5.10;2.20;;;16.00;99.90;;;;;;5114695;28;20533;-77
2023/05/18 10:13:57;;;;;;;5.73;2.47;;;15.80;99.90;;;;;;5114424;28;20639;-77
2023/05/18 10:16:24;;;;;;;5.30;2.20;;;15.30;99.90;;;;;;5114271;28;20258;-77
2023/05/18 10:18:53;;;;;;;6.57;2.27;;;14.60;99.90;;;;;;5114465;28;20167;-77
2023/05/18 10:21:20;;;;;;;3.97;2.20;;;14.30;99.90;;;;;;5113843;28;20564;-77
2023/05/18 10:23:49;;;;;;;5.23;2.30;;;14.50;99.90;;;;;;5114037;28;20250;-77
2023/05/18 10:26:21;;;;;;;5.43;2.20;;;15.10;99.90;;;;;;5115449;28;20179;-78
2023/05/18 10:28:49;;;;;;;7.07;2.07;;;14.80;99.90;;;;;;5114340;28;20174;-77
2023/05/18 10:31:16;;;;;;;8.10;1.93;;;14.20;99.90;;;;;;5113679;28;20248;-77
2023/05/18 10:33:43;;;;;;;4.47;2.50;;;13.70;99.90;;;;;;5113875;28;20649;-77
2023/05/18 10:36:10;;;;;;;4.93;2.00;;;13.30;99.90;;;;;;5115669;28;20196;-77
2023/05/18 10:38:38;;;;;;;3.07;1.90;;;13.30;99.90;;;;;;5114169;28;20184;-79
2023/05/18 10:41:05;;;;;;;7.17;2.33;;;13.20;99.90;;;;;;5113946;28;20306;-77
2023/05/18 10:43:33;;;;;;;6.00;2.03;;;13.20;99.90;;;;;;5115489;28;20562;-77
2023/05/18 10:46:00;;;;;;;4.63;2.17;;;13.00;99.90;;;;;;5114040;28;20182;-78
2023/05/18 10:48:27;;;;;;;7.03;2.57;;;12.90;99.90;;;;;;5114780;28;20254;-77
2023/05/18 10:50:56;;;;;;;5.90;2.73;;;12.90;99.90;;;;;;5113179;28;20207;-77
2023/05/18 10:53:28;;;;;;;3.60;2.30;;;12.80;99.90;;;;;;5115162;28;20182;-79
2023/05/18 10:55:54;;;;;;;6.07;2.30;;;12.60;99.90;;;;;;5114820;28;20218;-77
2023/05/18 10:58:25;;;;;;;5.17;2.10;;;12.50;99.90;;;;;;5113557;28;20176;-77
2023/05/18 11:00:56;;;;;;;3.97;2.30;;;12.60;99.90;;;;;;5114432;28;20194;-77
2023/05/18 11:03:24;;;;;;;8.33;2.30;;;12.60;99.90;;;;;;5115161;28;20171;-77
2023/05/18 11:06:01;;;;;;;5.70;2.80;;;12.60;99.90;;;;;;5113128;28;20208;-77
2023/05/18 11:08:27;;;;;;;4.07;2.43;;;12.50;99.90;;;;;;5114512;28;20175;-77
2023/05/18 11:11:03;;;;;;;5.63;2.23;;;12.50;99.90;;;;;;5112992;28;20760;-77
2023/05/18 11:13:34;;;;;;;3.17;2.20;;;12.50;99.90;;;;;;5113226;28;20713;-77
2023/05/18 11:16:07;;;;;;;6.53;2.77;;;12.60;99.90;;;;;;5114403;28;20172;-77
2023/05/18 11:18:48;;;;;;;5.17;2.50;;;12.90;99.90;;;;;;5112944;28;20175;-77
2023/05/18 11:21:49;;;;;;;4.40;2.30;;;14.20;99.90;;;;;;5114083;28;20194;-77
2023/05/18 11:24:30;;;;;;;4.00;2.20;;;15.80;99.90;;;;;;5114185;28;20703;-77
2023/05/18 11:26:57;;;;;;;5.83;2.33;;;15.70;99.90;;;;;;5114376;28;20171;-78
2023/05/18 11:29:40;;;;;;;3.33;2.10;;;15.20;99.90;;;;;;5112785;28;20705;-77
2023/05/18 11:32:28;;;;;;;6.23;2.23;;;14.70;99.90;;;;;;5114256;28;20183;-79
2023/05/18 11:34:55;;;;;;;3.43;2.30;;;14.10;99.90;;;;;;5114431;28;20233;-77
2023/05/18 11:37:38;;;;;;;5.83;2.33;;;13.50;99.90;;;;;;5113887;28;20175;-77
2023/05/18 11:40:08;;;;;;;6.03;2.20;;;13.50;99.90;;;;;;5114464;28;20276;-77
2023/05/18 11:42:34;;;;;;;5.13;2.43;;;13.50;99.90;;;;;;5114319;28;20169;-77
2023/05/18 11:45:11;;;;;;;2.80;2.40;;;13.50;99.90;;;;;;5114028;28;20168;-77
2023/05/18 11:47:41;;;;;;;2.53;1.87;;;13.20;99.90;;;;;;5113991;28;20524;-77
2023/05/18 11:50:08;;;;;;;7.07;2.43;;;13.20;99.90;;;;;;5114135;28;20218;-78
2023/05/18 11:52:45;;;;;;;7.77;3.20;;;13.40;99.90;;;;;;5112750;28;20172;-78
2023/05/18 11:55:13;;;;;;;6.53;2.73;;;13.60;99.90;;;;;;5113483;28;20248;-77
2023/05/18 11:57:42;;;;;;;5.63;2.77;;;13.70;99.90;;;;;;5114118;28;20255;-79
2023/05/18 12:00:10;;;;;;;4.93;2.60;;;13.60;99.90;;;;;;5114554;28;20274;-77
2023/05/18 12:02:37;;;;;;;5.43;2.97;;;13.50;99.90;;;;;;5113916;28;20179;-77
2023/05/18 12:05:07;;;;;;;6.80;3.10;;;13.50;99.90;;;;;;5112530;28;20483;-77
2023/05/18 12:07:34;;;;;;;3.60;2.13;;;14.20;99.90;;;;;;5113202;28;20679;-79
2023/05/18 12:10:09;;;;;;;5.67;2.60;;;14.40;99.90;;;;;;5112956;28;20201;-77
2023/05/18 12:12:35;;;;;;;6.53;3.00;;;13.90;99.90;;;;;;5113701;28;20171;-77
2023/05/18 12:15:02;;;;;;;7.40;2.47;;;14.50;99.90;;;;;;5115623;28;20195;-78
2023/05/18 12:17:45;;;;;;;5.47;2.20;;;14.70;99.90;;;;;;5113938;28;20172;-78
2023/05/18 12:20:14;;;;;;;4.57;2.47;;;14.80;99.90;;;;;;5114930;28;20179;-78
2023/05/18 12:22:41;;;;;;;5.63;2.50;;;14.30;99.90;;;;;;5114548;28;20255;-78
2023/05/18 12:25:07;;;;;;;4.90;2.27;;;14.40;99.90;;;;;;5115977;28;20169;-78
2023/05/18 12:27:40;;;;;;;4.60;2.13;;;14.00;99.90;;;;;;5113887;28;20691;-78
2023/05/18 12:30:37;;;;;;;3.63;2.20;;;14.00;99.90;;;;;;5112803;28;20251;-78
2023/05/18 12:33:03;;;;;;;2.80;2.17;;;14.10;99.90;;;;;;5113931;28;20532;-77
2023/05/18 12:35:29;;;;;;;5.87;2.63;;;14.30;99.90;;;;;;5113888;28;20207;-78
2023/05/18 12:38:00;;;;;;;5.77;2.53;;;14.50;99.90;;;;;;5114077;28;20554;-77
2023/05/18 12:40:26;;;;;;;4.03;2.27;;;15.00;99.90;;;;;;5113701;28;20280;-79
2023/05/18 12:42:58;;;;;;;4.13;2.17;;;14.90;99.90;;;;;;5118236;28;20171;-77
2023/05/18 12:45:30;;;;;;;3.73;2.50;;;14.50;99.90;;;;;;5116973;28;20533;-78
2023/05/18 12:48:06;;;;;;;4.30;2.40;;;14.30;99.90;;;;;;5118387;28;20172;-80
2023/05/18 12:50:33;;;;;;;5.23;2.50;;;14.00;99.90;;;;;;5116692;28;20683;-78
2023/05/18 12:53:00;;;;;;;6.07;2.47;;;14.00;99.90;;;;;;5116753;28;20649;-78
2023/05/18 12:55:26;;;;;;;7.47;2.67;;;13.80;99.90;;;;;;5115446;28;20210;-78
2023/05/18 12:57:59;;;;;;;6.10;2.43;;;13.50;99.90;;;;;;5115668;28;20225;-79
2023/05/18 13:00:25;;;;;;;3.80;2.40;;;13.50;99.90;;;;;;5115389;28;20188;-77
2023/05/18 13:02:50;;;;;;;3.73;2.37;;;13.30;99.90;;;;;;5115650;28;20217;-78
2023/05/18 13:05:23;;;;;;;5.13;2.57;;;13.20;99.90;;;;;;5116029;28;20548;-78
2023/05/18 13:07:49;;;;;;;7.33;3.43;;;13.10;99.90;;;;;;5117513;28;20175;-77
2023/05/18 13:10:16;;;;;;;5.47;3.00;;;13.00;99.90;;;;;;5116841;28;20299;-77
2023/05/18 13:12:47;;;;;;;3.13;2.03;;;13.00;99.90;;;;;;5116503;28;20173;-77
2023/05/18 13:15:15;;;;;;;3.97;2.40;;;13.20;99.90;;;;;;5115680;28;20203;-78
2023/05/18 13:17:55;;;;;;;6.40;2.40;;;13.20;99.90;;;;;;5118020;28;20206;-78
2023/05/18 13:20:21;;;;;;;5.57;2.87;;;13.00;99.90;;;;;;5116169;28;20219;-77
2023/05/18 13:22:49;;;;;;;3.67;2.10;;;12.60;99.90;;;;;;5115429;28;20171;-77
2023/05/18 13:25:15;;;;;;;10.70;2.50;;;12.50;99.90;;;;;;5116205;28;20175;-77
2023/05/18 13:27:44;;;;;;;4.73;2.37;;;12.40;99.90;;;;;;5116183;28;20254;-78
2023/05/18 13:30:10;;;;;;;6.53;2.77;;;12.30;99.90;;;;;;5115592;28;20195;-77
2023/05/18 13:32:36;;;;;;;5.03;2.20;;;12.50;99.90;;;;;;5116291;28;20168;-77
2023/05/18 13:35:02;;;;;;;5.70;2.87;;;12.70;99.90;;;;;;5117356;28;20198;-77
2023/05/18 13:37:27;;;;;;;8.33;2.63;;;12.90;99.90;;;;;;5116141;28;20171;-77
2023/05/18 13:39:53;;;;;;;3.87;2.43;;;13.20;99.90;;;;;;5116469;28;20198;-77
2023/05/18 13:42:20;;;;;;;5.90;2.67;;;13.20;99.90;;;;;;5115738;28;20636;-77
2023/05/18 13:44:46;;;;;;;4.00;2.27;;;13.20;99.90;;;;;;5114566;28;20185;-77
2023/05/18 13:47:12;;;;;;;6.87;2.33;;;13.00;99.90;;;;;;5115966;28;20175;-77
2023/05/18 13:49:38;;;;;;;6.07;2.37;;;12.90;99.90;;;;;;5115649;28;20184;-77
2023/05/18 13:52:03;;;;;;;5.87;2.50;;;12.70;99.90;;;;;;5115813;28;20198;-77
2023/05/18 13:54:29;;;;;;;3.77;2.00;;;12.70;99.90;;;;;;5116296;28;20203;-79
2023/05/18 13:56:55;;;;;;;4.63;2.23;;;12.70;99.90;;;;;;5114363;28;20172;-77
2023/05/18 13:59:21;;;;;;;4.47;2.20;;;12.70;99.90;;;;;;5115533;28;20196;-77
2023/05/18 14:01:46;;;;;;;4.73;2.40;;;12.70;99.90;;;;;;5115622;28;20178;-77
2023/05/18 14:04:12;;;;;;;4.77;2.23;;;12.70;99.90;;;;;;5114576;28;20203;-77
2023/05/18 14:06:38;;;;;;;5.07;2.00;;;12.60;99.90;;;;;;5115190;28;20267;-77
2023/05/18 14:09:04;;;;;;;4.80;1.93;;;12.50;99.90;;;;;;5114125;28;20187;-77
2023/05/18 14:11:33;;;;;;;4.87;2.20;;;12.40;99.90;;;;;;5113637;28;20578;-77
2023/05/18 14:13:59;;;;;;;3.60;2.00;;;12.30;99.90;;;;;;5115069;28;20535;-77
2023/05/18 14:16:24;;;;;;;6.83;2.90;;;12.30;99.90;;;;;;5114431;28;20184;-77
2023/05/18 14:18:50;;;;;;;4.10;2.43;;;12.20;99.90;;;;;;5114230;28;20172;-77
2023/05/18 14:21:16;;;;;;;5.90;2.67;;;12.10;99.90;;;;;;5113793;28;20649;-77
2023/05/18 14:23:41;;;;;;;7.13;2.60;;;12.10;99.90;;;;;;5115642;28;20255;-77
2023/05/18 14:26:08;;;;;;;3.67;2.40;;;12.10;99.90;;;;;;5114176;28;20207;-77
2023/05/18 14:28:33;;;;;;;5.77;2.40;;;12.10;99.90;;;;;;5115059;28;20184;-77
2023/05/18 14:30:59;;;;;;;3.27;2.13;;;12.10;99.90;;;;;;5113308;28;20322;-77
2023/05/18 14:33:25;;;;;;;6.60;2.37;;;12.00;99.90;;;;;;5113979;28;20267;-77
2023/05/18 14:35:51;;;;;;;5.30;2.17;;;11.90;99.90;;;;;;5113535;28;20294;-77
2023/05/18 15:02:47;;;;;;;4.57;3.10;;;11.60;99.90;;;;;;5132471;27;20267;-79
2023/05/18 15:14:46;;;;;;;7.50;3.13;;;11.60;99.90;;;;;;5132080;27;20473;-78
2023/05/18 15:27:26;;;;;;;5.67;2.80;;;;;;;;;;5152415;27;20621;-77
2023/05/18 15:56:50;;;;;;;4.33;2.90;;;11.10;99.90;;;;;;5111212;27;20275;-77
2023/05/18 16:04:43;;;;;;;5.87;2.67;;;;;;;;;;5132919;27;20271;-80
2023/05/18 16:12:32;;;;;;;3.97;2.60;;;;;;;;;;5131831;27;20267;-77
2023/05/18 16:18:49;;;;;;;6.47;3.07;;;;;;;;;;5132122;27;20767;-77
2023/05/18 16:25:34;;;;;;;4.10;2.43;;;11.40;99.90;;;;;;5132188;27;20745;-77
2023/05/18 16:33:18;;;;;;;4.57;2.77;;;11.40;99.90;;;;;;5132278;27;20756;-77
2023/05/18 16:40:07;;;;;;;3.80;2.67;;;11.50;99.90;;;;;;5131808;27;20802;-77
2023/05/18 16:48:28;;;;;;;5.10;2.90;;;11.70;99.90;;;;;;5131829;27;20278;-77
